createdAt,value
2022-10-28T00:03:57.697Z,101720.0
2022-10-28T00:08:57.679Z,101720.0
2022-10-28T00:13:57.691Z,101710.0
2022-10-28T00:18:57.690Z,101710.0
2022-10-28T00:23:57.695Z,101720.0
2022-10-28T00:28:57.698Z,101720.0
2022-10-28T00:33:57.702Z,101720.0
2022-10-28T00:38:57.714Z,101710.0
2022-10-28T00:43:57.709Z,101710.0
2022-10-28T00:48:57.704Z,101700.0
2022-10-28T00:53:57.707Z,101700.0
2022-10-28T00:58:57.709Z,101700.0
2022-10-28T01:03:57.723Z,101700.0
2022-10-28T01:09:00.083Z,101690.0
2022-10-28T01:13:57.712Z,101680.0
2022-10-28T01:18:57.724Z,101670.0
2022-10-28T01:23:57.717Z,101660.0
2022-10-28T01:28:57.724Z,101660.0
2022-10-28T01:33:57.727Z,101650.0
2022-10-28T01:38:57.728Z,101650.0
2022-10-28T01:43:57.727Z,101650.0
2022-10-28T01:48:57.742Z,101660.0
2022-10-28T01:53:57.733Z,101660.0
2022-10-28T01:58:57.743Z,101640.0
2022-10-28T02:03:57.744Z,101650.0
2022-10-28T02:08:57.741Z,101650.0
2022-10-28T02:13:57.761Z,101650.0
2022-10-28T02:18:57.740Z,101660.0
2022-10-28T02:23:57.748Z,101650.0
2022-10-28T02:28:57.756Z,101650.0
2022-10-28T02:33:57.756Z,101650.0
2022-10-28T02:38:57.755Z,101650.0
2022-10-28T02:43:57.758Z,101640.0
2022-10-28T02:48:57.763Z,101640.0
2022-10-28T02:53:57.769Z,101630.0
2022-10-28T02:58:57.785Z,101630.0
2022-10-28T03:03:57.784Z,101630.0
2022-10-28T03:08:57.775Z,101620.0
2022-10-28T03:13:57.772Z,101630.0
2022-10-28T03:18:57.826Z,101630.0
2022-10-28T03:23:57.779Z,101630.0
2022-10-28T03:28:57.783Z,101630.0
2022-10-28T03:33:57.794Z,101620.0
2022-10-28T03:38:57.794Z,101630.0
2022-10-28T03:48:57.795Z,101620.0
2022-10-28T03:53:57.795Z,101620.0
2022-10-28T03:58:57.809Z,101630.0
2022-10-28T04:03:57.798Z,101620.0
2022-10-28T04:08:57.812Z,101620.0
2022-10-28T04:13:57.813Z,101620.0
2022-10-28T04:18:57.806Z,101620.0
2022-10-28T04:23:57.816Z,101620.0
2022-10-28T04:28:57.816Z,101610.0
2022-10-28T04:33:57.818Z,101610.0
2022-10-28T04:38:57.816Z,101630.0
2022-10-28T04:43:57.826Z,101630.0
2022-10-28T04:48:57.829Z,101630.0
2022-10-28T04:53:57.840Z,101620.0
2022-10-28T04:58:57.831Z,101620.0
2022-10-28T05:03:57.848Z,101630.0
2022-10-28T05:08:57.839Z,101630.0
2022-10-28T05:13:57.836Z,101630.0
2022-10-28T05:18:57.860Z,101610.0
2022-10-28T05:23:57.853Z,101610.0
2022-10-28T05:28:57.850Z,101610.0
2022-10-28T05:33:57.861Z,101610.0
2022-10-28T05:43:57.866Z,101600.0
2022-10-28T05:53:57.866Z,101590.0
2022-10-28T05:58:57.870Z,101610.0
2022-10-28T06:03:57.904Z,101600.0
2022-10-28T06:08:57.867Z,101610.0
2022-10-28T06:13:56.357Z,101610.0
2022-10-28T06:18:56.358Z,101610.0
2022-10-28T06:23:56.368Z,101620.0
2022-10-28T06:28:56.367Z,101610.0
2022-10-28T06:33:56.381Z,101620.0
2022-10-28T06:38:56.376Z,101630.0
2022-10-28T06:43:56.392Z,101630.0
2022-10-28T06:48:57.908Z,101620.0
2022-10-28T06:53:57.908Z,101630.0
2022-10-28T06:58:57.924Z,101630.0
2022-10-28T07:03:57.964Z,101620.0
2022-10-28T07:08:57.934Z,101620.0
2022-10-28T07:13:57.950Z,101620.0
2022-10-28T07:18:57.954Z,101630.0
2022-10-28T07:23:57.959Z,101630.0
2022-10-28T07:28:57.968Z,101630.0
2022-10-28T07:33:57.981Z,101630.0
2022-10-28T07:38:57.985Z,101630.0
2022-10-28T07:43:57.983Z,101640.0
2022-10-28T07:48:57.985Z,101630.0
2022-10-28T07:53:57.988Z,101640.0
2022-10-28T07:58:57.986Z,101640.0
2022-10-28T08:03:57.983Z,101630.0
2022-10-28T08:08:57.980Z,101630.0
2022-10-28T08:13:57.973Z,101620.0
2022-10-28T08:18:57.972Z,101610.0
2022-10-28T08:23:57.974Z,101620.0
2022-10-28T08:28:57.986Z,101620.0
2022-10-28T08:33:57.982Z,101630.0
2022-10-28T08:38:57.981Z,101630.0
2022-10-28T08:43:58.200Z,101640.0
2022-10-28T08:48:58.001Z,101630.0
2022-10-28T08:53:58.008Z,101630.0
2022-10-28T08:58:58.011Z,101620.0
2022-10-28T09:03:58.006Z,101620.0
2022-10-28T09:08:58.024Z,101620.0
2022-10-28T09:13:58.022Z,101620.0
2022-10-28T09:18:58.028Z,101630.0
2022-10-28T09:23:58.030Z,101630.0
2022-10-28T09:28:58.154Z,101640.0
2022-10-28T09:33:58.034Z,101630.0
2022-10-28T09:38:58.041Z,101650.0
2022-10-28T09:43:58.050Z,101640.0
2022-10-28T09:48:58.052Z,101640.0
2022-10-28T09:53:58.057Z,101640.0
2022-10-28T09:58:58.060Z,101640.0
2022-10-28T10:03:58.081Z,101640.0
2022-10-28T10:08:58.070Z,101630.0
2022-10-28T10:13:58.074Z,101640.0
2022-10-28T10:18:58.076Z,101640.0
2022-10-28T10:23:58.078Z,101630.0
2022-10-28T10:28:58.083Z,101640.0
2022-10-28T10:33:58.093Z,101630.0
2022-10-28T10:38:58.098Z,101630.0
2022-10-28T10:43:58.142Z,101630.0
2022-10-28T10:48:58.097Z,101620.0
2022-10-28T10:53:58.100Z,101610.0
2022-10-28T10:58:58.111Z,101610.0
2022-10-28T11:08:58.303Z,101600.0
2022-10-28T11:13:58.122Z,101600.0
2022-10-28T11:18:58.148Z,101600.0
2022-10-28T11:23:58.134Z,101590.0
2022-10-28T11:28:58.132Z,101580.0
2022-10-28T11:33:58.150Z,101570.0
2022-10-28T11:38:58.185Z,101580.0
2022-10-28T11:44:02.269Z,101550.0
2022-10-28T11:48:58.145Z,101560.0
2022-10-28T11:53:58.079Z,101550.0
2022-10-28T11:58:58.072Z,101570.0
2022-10-28T12:03:58.062Z,101580.0
2022-10-28T12:08:58.103Z,101580.0
2022-10-28T12:13:58.206Z,101570.0
2022-10-28T12:18:58.087Z,101570.0
2022-10-28T12:23:58.072Z,101580.0
2022-10-28T12:28:58.175Z,101590.0
2022-10-28T12:33:58.167Z,101600.0
2022-10-28T12:38:58.173Z,101580.0
2022-10-28T12:43:58.089Z,101590.0
2022-10-28T12:48:58.088Z,101600.0
2022-10-28T12:53:58.090Z,101590.0
2022-10-28T12:58:58.144Z,101600.0
2022-10-28T13:03:58.197Z,101600.0
2022-10-28T13:08:58.203Z,101600.0
2022-10-28T13:13:58.170Z,101600.0
2022-10-28T13:18:58.104Z,101610.0
2022-10-28T13:23:58.200Z,101630.0
2022-10-28T13:28:58.208Z,101630.0
2022-10-28T13:33:58.213Z,101640.0
2022-10-28T13:38:58.212Z,101640.0
2022-10-28T13:43:58.219Z,101630.0
2022-10-28T13:48:58.357Z,101650.0
2022-10-28T13:53:58.215Z,101650.0
2022-10-28T13:58:58.218Z,101640.0
2022-10-28T14:03:58.230Z,101670.0
2022-10-28T14:08:58.228Z,101670.0
2022-10-28T14:13:58.230Z,101670.0
2022-10-28T14:18:58.236Z,101680.0
2022-10-28T14:23:58.235Z,101690.0
2022-10-28T14:28:58.230Z,101700.0
2022-10-28T14:33:58.233Z,101700.0
2022-10-28T14:38:58.262Z,101690.0
2022-10-28T14:43:58.238Z,101690.0
2022-10-28T14:48:58.246Z,101700.0
2022-10-28T14:53:58.250Z,101680.0
2022-10-28T14:58:58.257Z,101680.0
2022-10-28T15:03:58.249Z,101690.0
2022-10-28T15:08:58.259Z,101700.0
2022-10-28T15:13:58.257Z,101720.0
2022-10-28T15:18:58.255Z,101720.0
2022-10-28T15:23:58.264Z,101720.0
2022-10-28T15:28:58.264Z,101730.0
2022-10-28T15:33:58.270Z,101730.0
2022-10-28T15:38:58.267Z,101730.0
2022-10-28T15:43:58.272Z,101740.0
2022-10-28T15:48:58.279Z,101760.0
2022-10-28T15:53:58.280Z,101760.0
2022-10-28T15:58:58.283Z,101760.0
2022-10-28T16:03:58.280Z,101770.0
2022-10-28T16:08:58.283Z,101770.0
2022-10-28T16:13:58.290Z,101770.0
2022-10-28T16:18:58.296Z,101770.0
2022-10-28T16:23:58.290Z,101770.0
2022-10-28T16:28:58.291Z,101780.0
2022-10-28T16:33:58.293Z,101790.0
2022-10-28T16:38:58.298Z,101800.0
2022-10-28T16:43:58.365Z,101810.0
2022-10-28T16:48:58.299Z,101820.0
2022-10-28T16:53:58.306Z,101810.0
2022-10-28T16:58:58.308Z,101810.0
2022-10-28T17:03:58.303Z,101810.0
2022-10-28T17:09:02.993Z,101810.0
2022-10-28T17:13:58.315Z,101830.0
2022-10-28T17:18:58.354Z,101830.0
2022-10-28T17:23:58.315Z,101830.0
2022-10-28T17:28:58.320Z,101840.0
2022-10-28T17:33:58.325Z,101840.0
2022-10-28T17:38:58.323Z,101860.0
2022-10-28T17:43:58.329Z,101860.0
2022-10-28T17:48:58.325Z,101860.0
2022-10-28T17:53:58.329Z,101870.0
2022-10-28T17:58:58.327Z,101880.0
2022-10-28T18:03:58.339Z,101890.0
2022-10-28T18:08:58.343Z,101900.0
2022-10-28T18:13:58.377Z,101890.0
2022-10-28T18:18:58.346Z,101890.0
2022-10-28T18:23:58.343Z,101910.0
2022-10-28T18:28:58.352Z,101910.0
2022-10-28T18:33:58.349Z,101900.0
2022-10-28T18:38:58.357Z,101920.0
2022-10-28T18:43:58.352Z,101920.0
2022-10-28T18:48:58.354Z,101920.0
2022-10-28T18:53:58.369Z,101940.0
2022-10-28T18:58:58.363Z,101940.0
2022-10-28T19:03:58.360Z,101940.0
2022-10-28T19:08:58.363Z,101950.0
2022-10-28T19:13:58.375Z,101930.0
2022-10-28T19:18:58.379Z,101930.0
2022-10-28T19:23:58.378Z,101940.0
2022-10-28T19:28:58.372Z,101960.0
2022-10-28T19:33:58.385Z,101950.0
2022-10-28T19:38:58.382Z,101940.0
2022-10-28T19:43:58.963Z,101950.0
2022-10-28T19:48:58.391Z,101960.0
2022-10-28T19:53:58.419Z,101970.0
2022-10-28T19:58:58.391Z,101980.0
2022-10-28T20:03:58.402Z,101950.0
2022-10-28T20:08:58.396Z,101970.0
2022-10-28T20:13:58.452Z,101980.0
2022-10-28T20:18:58.451Z,102000.0
2022-10-28T20:23:58.422Z,102010.0
2022-10-28T20:28:58.411Z,102010.0
2022-10-28T20:33:58.413Z,102010.0
2022-10-28T20:38:58.415Z,102020.0
2022-10-28T20:43:58.491Z,102030.0
2022-10-28T20:48:58.415Z,102030.0
2022-10-28T20:53:58.420Z,102040.0
2022-10-28T20:58:58.426Z,102060.0
2022-10-28T21:03:58.429Z,102060.0
2022-10-28T21:08:58.428Z,102060.0
2022-10-28T21:13:58.422Z,102070.0
2022-10-28T21:18:58.428Z,102050.0
2022-10-28T21:23:58.435Z,102060.0
2022-10-28T21:28:58.440Z,102060.0
2022-10-28T21:33:59.193Z,102060.0
2022-10-28T21:38:58.437Z,102060.0
2022-10-28T21:43:58.467Z,102070.0
2022-10-28T21:48:58.444Z,102070.0
2022-10-28T21:53:58.448Z,102070.0
2022-10-28T21:58:58.451Z,102070.0
2022-10-28T22:03:58.468Z,102050.0
2022-10-28T22:08:58.452Z,102060.0
2022-10-28T22:13:58.479Z,102070.0
2022-10-28T22:18:58.466Z,102060.0
2022-10-28T22:23:58.468Z,102070.0
2022-10-28T22:28:58.467Z,102080.0
2022-10-28T22:33:58.470Z,102080.0
2022-10-28T22:38:58.484Z,102080.0
2022-10-28T22:43:58.475Z,102090.0
2022-10-28T22:48:58.473Z,102090.0
2022-10-28T22:53:58.479Z,102090.0
2022-10-28T22:58:58.480Z,102100.0
2022-10-28T23:03:58.492Z,102110.0
2022-10-28T23:08:58.479Z,102110.0
2022-10-28T23:18:58.492Z,102090.0
2022-10-28T23:23:58.494Z,102090.0
2022-10-28T23:28:58.523Z,102080.0
2022-10-28T23:33:58.499Z,102090.0
2022-10-28T23:38:58.506Z,102090.0
2022-10-28T23:43:58.504Z,102100.0
2022-10-28T23:48:58.506Z,102100.0
2022-10-28T23:53:58.508Z,102090.0
2022-10-28T23:58:58.508Z,102090.0
